Orangeburg Municipal Airport
KOGB : rendu visible

Aérodrome :











RETROUVEZ-NOUS SUR...

 
LOGIN :

S'inscrire | Disclaimer

   EN    FR    IT 

 









Légende :    VFR   VFR Marginal   IFR   IFR Intensif   IFR Très Intensif
Visi : 
Plafond : 
>= 8 km
>= 3000ft
5 à 8 km
1000 à 3000 ft
1500m à 5 km
500 à 1000 ft
800 à 1500m
200 à 500 ft
< 800m
< 200 ft
Symboles :   Orages  Brouillard  Fortes neiges  Fortes précipitations  Vent > 20 kt






- Altitude de l'aérodrome : 195 ft


KOGB - Orangeburg Municipal

DERNIER METAR :
  • 181753Z AUTO 17008KT 10SM CLR 13/07 A3035 RMK AO2 SLP276 T01280067 10128 20050 58042

METARs EXPIRÉS :
  • 181653Z AUTO 13007KT 100V170 10SM FEW017 11/05 A3040 RMK AO2 SLP293 T01110050
  • 181608Z AUTO 12008KT 080V140 10SM SCT015 10/04 A3044 RMK AO2 T01000039
  • 181601Z AUTO 13008KT 10SM BKN015 10/03 A3044 RMK AO2 T01000033
  • 181553Z AUTO 12008KT 10SM SCT015 09/03 A3045 RMK AO2 SLP311 T00940033
  • 181540Z AUTO VRB03KT 10SM BKN015 09/02 A3046 RMK AO2 T00940022

TAF KOGB
Valide du 18 à 18h jusqu'au 19 à 18h UTC


181733Z 1818/1918 11008KT P6SM SCT015 BKN035
TEMPO 1820/1824 BKN025
FM190200 16008KT P6SM -SHRA BKN025 OVC050 WS020/20038KT
FM190600 23010G16KT P6SM -SHRA OVC015 WS020/22045KT
FM191300 28010G18KT P6SM SCT035



MET'MAP, la Météo Aéronautique d'un coup d'oeil ! - Copyright ORBIFLY Décembre 2007 - Disclaimer

ORBIFLY MET'MAP TEAM :

Programmation & Développement : Alexandra Zaïnal
Sur une idée originale de : Baudouin d'Aumeries
Assistance à la programmation : Marc-Olivier Méhu
Soutien technique & logistique : Manuel Goepfert

Contact : metmap@orbifly.com




SOURCES & CREDITS :

   NOAA       Earth
Advisory